Terminal Aerodrome Forecast
Issued by NWS Wilmington, OH

Current Version | Previous Version | Graphics & Text | Print | Product List | Glossary On
Versions: 1 2 3 4 5 6 7 8 9 10 11 12 13 14 15 16 17 18 19 20 21 22 23 24 25 26 27 28 29 30
000
FTUS41 KILN 291136
TAFILN
TAF
KILN 291136Z 2912/3012 19007KT P6SM VCTS OVC035CB
      TEMPO 2912/2916 3SM TSRA OVC028CB
     FM291600 24008KT P6SM VCTS OVC050CB
     FM292100 13009KT P6SM VCSH SCT050 BKN110
     FM300700 18007KT P6SM BKN140 WS020/21040KT=

USA.gov is the U.S. government's official web portal to all federal, state and local government web resources and services.